Hlavní strana
METAR-TAF:

METAR-TAF

Letiště :

Nador, Maroko

zeměpisná šířka: 34-59-20N, zeměpisná délka: 003-01-42W, výška: 175 m

Aktuální stav počasí

Zpráva byla vytvořena před 1 hodinou a 6 minutami, v 05:00 UTC
Východoseverovýchodní vítr 5 kt
Teplota 17°C
Vlhkost vzduchu 94%
Tlak 1014 hPa
Viditelnost: 6000 m
Oblačno až skoro zataženo ve výšce 1500 ft

METAR: GMMW 300500Z 07005KT 6000 BKN015 17/16 Q1014 NOSIG

Čas: 07:06 (06:06 UTC)

Předpověď počasí

Zpráva byla vytvořena před 1 hodinou a 6 minutami, v 05:00 UTC
Předpověď platná od 30 v 06 UTC do 31 v 12 UTC
Východoseverovýchodní vítr 5 kt
Viditelnost: 6000 m
Oblačno až skoro zataženo ve výšce 1600 ft

TAF: GMMW 300500Z 3006/3112 06005KT 6000 BKN016

Stav a předpovědi počasí z více než 4 000 letišť (zprávy METAR a TAF).

Červené a žluté tečky na mapě představují dostupné meteorologické stanice.

Když kurzor umístíte na tečku, zobrazí se název stanice.

Pak kliknutím zobrazíte stav a předpověď počasí.

Chcete-li změnit mapu, kliknutím na zelené tlačítko se znaménkem +mapu přiblížíte, kliknutím na zelené tlačítko se znaménkem – mapu oddálíte a kliknutím na zelené šipky přejdete na sousední mapy.


METAR-TAF: